Sant Martí Sacalm





Hora UTC 23:40
Temperatura 10.8 ºC
Humitat 89.0 %
Pressió 1025.1 hPa
Pluja 0.0 mm
Velocitat vent 11.7 km/h
Direcció vent SW
Radiació solar 0.1 W/m²

Dades diàries 2020-10-29



Hora UTC (hivern +1h; estiu +2h)
Temperatura (ºC) Humitat (%) Pressió (hPa) Velocitat vent (km/h) Precipitació (mm) Radiació solar (W/m²)
Hora UTC Aire Humitat Pressió Vel. Dir. Vel. Max Dir. Intent. màx 5 min. Rad. Sol.
00:05 11.3 86.4 1023.2 1.5 SSW 1.5 SSW 0.0 0.1
00:10 11.4 85.7 1023.1 2.8 SSW 6.0 S 0.0 0.1
00:15 11.4 86.0 1023.1 4.8 SSW 6.4 SSW 0.0 0.1
00:20 11.3 86.4 1023.2 5.6 SSW 9.5 SSW 0.0 0.1
00:25 11.4 86.5 1023.1 7.9 SSW 11.0 SW 0.0 0.1
00:30 11.4 86.4 1023.1 7.9 SSW 9.9 SSW 0.0 0.1
00:35 11.3 86.7 1023.0 8.1 SSW 9.5 SSW 0.0 0.1
00:40 11.1 86.8 1023.0 8.7 SSW 10.3 SSW 0.0 0.1
00:45 10.9 87.5 1023.1 8.2 SW 9.5 SSW 0.0 0.1
00:50 10.7 88.6 1023.2 7.2 SW 8.1 SW 0.0 0.1
00:55 10.7 87.5 1023.3 6.2 SW 7.8 SW 0.0 0.1
01:00 10.8 87.1 1023.3 6.2 SW 8.8 WSW 0.0 0.1
01:05 10.8 86.5 1023.3 5.4 SW 8.5 SSW 0.0 0.1
01:10 10.9 85.8 1023.3 4.9 SSW 6.4 SSW 0.0 0.1
01:15 10.9 85.8 1023.3 5.1 SW 6.7 SW 0.0 0.1
01:20 11.0 85.4 1023.4 4.7 SW 6.4 SSW 0.0 0.1
01:25 11.2 84.8 1023.3 5.1 SW 7.1 SW 0.0 0.1
01:30 11.1 85.2 1023.3 5.7 SW 7.1 SSW 0.0 0.1
01:35 11.1 85.5 1023.3 7.1 SW 8.5 SW 0.0 0.1
01:40 11.0 85.8 1023.3 7.1 SW 8.8 SW 0.0 0.1
01:45 10.8 86.5 1023.4 8.0 SW 9.5 SW 0.0 0.1
01:50 10.6 87.3 1023.2 10.1 SSW 14.1 SSW 0.0 0.1
01:55 10.5 87.6 1022.9 13.6 SSW 16.6 SSW 0.0 0.1
02:00 10.2 88.4 1022.7 14.7 SSW 17.7 SW 0.0 0.1
02:05 10.0 88.7 1022.8 13.4 SW 16.2 SW 0.0 0.1
02:10 9.7 89.8 1023.0 11.4 SSW 14.1 SSW 0.0 0.1
02:15 9.6 90.4 1023.1 8.7 SW 11.7 SW 0.0 0.1
02:20 9.5 90.8 1023.1 5.7 SW 9.5 SW 0.0 0.1
02:25 9.6 90.5 1023.0 3.4 SSW 5.3 S 0.0 0.1
02:30 9.8 90.0 1022.9 5.9 SSW 8.5 S 0.0 0.1
02:35 10.1 88.1 1022.9 8.1 SSW 11.3 SW 0.0 0.1
02:40 10.2 87.6 1023.1 6.2 SW 7.8 SW 0.0 0.1
02:45 10.5 86.4 1023.1 6.4 SW 7.8 SW 0.0 0.1
02:50 10.5 86.1 1023.2 5.1 SSW 6.4 SSW 0.0 0.1
02:55 10.5 86.0 1023.2 4.4 SSW 5.3 S 0.0 0.1
03:00 10.6 86.1 1023.2 5.1 SSW 8.5 SSW 0.0 0.1
03:05 10.7 85.6 1023.2 5.5 SSW 7.4 S 0.0 0.1
03:10 10.9 85.1 1023.1 5.2 SSW 7.1 SSW 0.0 0.1
03:15 11.1 83.8 1023.0 4.9 SSW 7.1 SSW 0.0 0.1
03:20 11.1 84.2 1023.0 6.3 SSW 8.1 SSW 0.0 0.1
03:25 11.1 84.7 1023.2 5.7 SW 7.1 SSW 0.0 0.1
03:30 11.0 84.7 1023.2 5.8 SSW 7.8 SSW 0.0 0.1
03:35 11.0 84.8 1023.2 4.4 SW 6.7 SW 0.0 0.1
03:40 11.0 85.0 1023.2 6.1 SW 8.5 SW 0.0 0.1
03:45 10.8 85.9 1023.2 6.4 SW 8.8 SW 0.0 0.1
03:50 10.7 86.4 1023.4 4.8 WSW 6.0 SW 0.0 0.1
03:55 10.8 86.1 1023.5 4.2 WSW 5.7 SW 0.0 0.1
04:00 10.8 85.8 1023.5 5.2 SW 6.0 SW 0.0 0.1
04:05 10.8 86.2 1023.6 4.2 SW 5.3 SW 0.0 0.1
04:10 10.7 86.5 1023.7 5.8 SW 7.1 SW 0.0 0.1
04:15 10.6 87.2 1023.7 5.0 SW 6.0 SW 0.0 0.1
04:20 10.6 86.8 1023.7 4.3 SSW 5.3 SSW 0.0 0.1
04:25 10.5 87.5 1023.7 5.8 SSW 7.8 SW 0.0 0.1
04:30 10.4 87.7 1023.6 5.5 SW 7.8 SW 0.0 0.1
04:35 10.4 88.0 1023.8 4.5 SW 5.7 SW 0.0 0.1
04:40 10.4 88.2 1023.9 3.1 WSW 6.0 W 0.0 0.1
04:45 10.7 87.8 1023.9 4.7 SW 7.4 SW 0.0 0.1
04:50 10.8 87.0 1023.8 4.9 SW 6.7 SW 0.0 0.1
04:55 10.8 87.3 1023.9 5.2 SW 7.4 WSW 0.0 0.1
05:00 10.9 87.2 1024.0 4.5 SW 6.0 SW 0.0 0.1
05:05 11.0 86.9 1024.1 4.8 SSW 7.1 SW 0.0 0.1
05:10 11.0 86.5 1024.0 7.0 SSW 9.2 SSW 0.0 0.1
05:15 10.8 86.8 1023.8 6.3 SSW 8.5 SSW 0.0 0.1
05:20 10.7 87.9 1023.8 7.6 SSW 10.6 SW 0.0 0.1
05:25 10.6 88.1 1023.8 7.7 SSW 9.2 SSW 0.0 0.1
05:30 10.5 88.9 1024.0 5.6 WSW 8.8 SW 0.0 0.1
05:35 10.5 89.6 1024.1 5.8 WSW 7.8 SW 0.0 0.1
05:40 10.5 90.1 1024.0 7.4 SW 10.3 SSW 0.0 0.1
05:45 10.4 90.3 1023.9 7.9 SSW 10.6 SSW 0.0 0.1
05:50 10.3 90.7 1023.7 6.9 SSW 10.3 SW 0.0 0.1
05:55 10.3 91.0 1023.7 8.9 SSW 12.4 SSW 0.0 0.1
06:00 10.3 91.0 1023.9 7.3 SW 11.3 SW 0.0 0.1
06:05 10.2 91.0 1023.9 6.5 SW 8.1 SSW 0.0 0.1
06:10 10.2 91.4 1023.8 8.3 SSW 10.6 SSW 0.0 0.4
06:15 10.2 91.8 1023.9 9.1 SSW 11.0 SW 0.0 0.4
06:20 10.1 91.9 1023.8 10.8 SSW 13.8 SSW 0.0 0.6
06:25 10.1 92.1 1023.8 10.9 SW 14.5 SSW 0.0 0.9
06:30 10.0 92.5 1023.9 8.7 SW 11.0 SW 0.0 1.4
06:35 10.0 92.6 1024.0 8.9 SW 13.1 WSW 0.0 2.1
06:40 10.1 91.9 1024.1 10.5 SSW 14.5 SW 0.0 2.9
06:45 10.2 91.7 1024.1 9.0 SW 12.4 SW 0.0 4.4
06:50 10.2 91.7 1024.2 8.2 SW 11.7 SW 0.0 5.8
06:55 10.2 91.3 1024.4 8.5 SW 12.7 SW 0.0 6.0
07:00 10.2 91.1 1024.4 8.3 SW 9.9 SW 0.0 9.7
07:05 10.3 91.0 1024.5 9.2 SW 13.8 SSW 0.0 10.9
07:10 10.2 91.2 1024.5 8.5 SW 12.7 SSW 0.0 16.2
07:15 10.2 91.3 1024.6 7.9 SW 11.0 WSW 0.0 27.9
07:20 10.3 91.3 1024.6 6.7 SW 11.0 SW 0.0 57.8
07:25 10.5 91.0 1024.7 4.9 SW 8.1 SW 0.0 79.7
07:30 10.6 90.7 1024.7 7.8 SSW 12.7 SSW 0.0 93.4
07:35 10.6 90.1 1024.6 10.0 SSW 15.9 SSW 0.0 84.7
07:40 10.4 90.5 1024.4 13.0 SSW 18.4 SSW 0.0 122.5
07:45 10.3 90.9 1024.6 13.2 SW 17.0 SW 0.0 117.9
07:50 10.3 91.1 1024.6 14.3 SW 18.7 SW 0.0 110.0
07:55 10.2 91.3 1024.5 16.0 SW 20.8 SW 0.0 91.2
08:00 10.2 91.8 1024.6 13.9 SW 18.4 SSW 0.0 102.2
08:05 10.2 92.0 1024.6 13.3 SW 17.0 SW 0.0 133.6
08:10 10.4 91.9 1024.7 12.1 SW 16.6 SW 0.0 191.7
08:15 10.5 91.0 1024.6 12.4 SW 18.0 SW 0.0 121.1
08:20 10.5 91.4 1024.5 15.1 SW 21.9 WSW 0.0 139.7
08:25 10.6 91.3 1024.6 14.5 SW 20.1 SW 0.0 135.4
08:30 10.7 91.0 1024.8 12.2 WSW 17.3 SW 0.0 164.6
08:35 11.0 90.2 1024.8 12.4 WSW 16.6 WSW 0.0 187.9
08:40 11.2 90.2 1024.8 13.1 WSW 19.8 WSW 0.0 187.1
08:45 11.3 90.0 1024.9 12.3 SW 15.9 SW 0.0 172.8
08:50 11.3 90.2 1025.0 9.9 SW 14.8 SW 0.0 117.7
08:55 11.4 90.3 1025.3 7.5 WSW 13.4 WSW 0.0 103.4
09:00 11.7 89.8 1025.4 6.6 WSW 11.3 W 0.0 116.5
09:05 11.7 89.6 1025.5 7.6 SW 11.0 SW 0.0 111.8
09:10 11.6 89.5 1025.6 6.0 SW 9.5 SW 0.0 79.3
09:15 11.6 89.6 1025.7 5.7 SW 7.8 SW 0.0 85.0
09:20 11.7 89.0 1025.8 6.3 SW 8.1 WSW 0.0 72.8
09:25 11.7 89.2 1025.7 7.7 SW 9.9 SW 0.0 144.8
09:30 11.8 89.2 1025.7 7.3 SSW 10.3 SW 0.0 173.8
09:35 11.7 89.0 1025.6 10.3 SW 14.1 SW 0.0 168.1
09:40 11.7 89.2 1025.5 10.8 SW 15.5 SW 0.0 270.3
09:45 11.9 88.5 1025.4 14.8 SW 19.4 SW 0.0 244.3
09:50 11.9 89.0 1025.4 14.5 SW 20.5 SW 0.0 252.2
09:55 11.9 88.8 1025.3 18.3 SW 24.7 SW 0.0 277.6
10:00 12.1 88.3 1025.3 19.2 SW 25.8 SW 0.0 440.0
10:05 12.5 87.1 1025.3 19.2 SW 25.1 SW 0.0 541.7
10:10 12.9 85.2 1025.2 21.7 SW 27.5 SW 0.0 542.6
10:15 13.0 84.9 1025.2 21.9 SW 28.9 SW 0.0 550.7
10:20 13.4 83.1 1025.2 21.4 SW 29.7 SW 0.0 557.8
10:25 13.7 82.0 1025.2 21.2 SW 30.7 WSW 0.0 567.2
10:30 13.7 80.9 1025.1 24.3 SW 32.8 SW 0.0 570.6
10:35 13.8 80.2 1025.1 21.9 SW 32.5 SW 0.0 543.8
10:40 14.0 77.3 1025.1 24.3 SW 35.3 SSW 0.0 563.9
10:45 13.8 77.9 1025.1 22.2 SW 32.5 SW 0.0 541.1
10:50 13.9 77.1 1025.1 22.2 SW 33.5 SW 0.0 563.4
10:55 13.9 77.3 1025.2 20.6 SW 30.7 SW 0.0 571.9
11:00 14.0 77.4 1025.2 19.6 SW 29.3 SW 0.0 530.2
11:05 14.1 76.3 1025.2 20.7 SW 32.5 SW 0.0 606.3
11:10 14.2 76.0 1025.2 15.3 SSW 23.0 SSW 0.0 578.8
11:15 14.4 75.4 1025.2 18.2 SW 27.9 SW 0.0 592.0
11:20 14.2 74.1 1025.2 19.8 SW 27.5 SSW 0.0 306.3
11:25 13.9 75.3 1025.1 18.8 SW 27.2 SW 0.0 211.7
11:30 14.3 74.0 1025.1 19.9 SW 28.9 SW 0.0 385.9
11:35 14.1 74.5 1025.0 19.2 SW 26.8 WSW 0.0 388.3
11:40 14.5 73.3 1025.0 18.6 SW 27.2 WSW 0.0 351.7
11:45 14.4 73.1 1025.0 18.1 SW 28.6 SW 0.0 418.4
11:50 14.6 72.0 1024.9 20.0 SW 28.9 SW 0.0 481.3
11:55 14.5 72.0 1024.8 21.1 SW 30.7 SSW 0.0 427.9
12:00 14.6 71.9 1024.8 20.0 SW 25.4 SW 0.0 550.7
12:05 14.9 71.2 1024.8 19.4 SW 27.2 SW 0.0 595.2
12:10 14.9 70.2 1024.7 20.3 SW 26.5 SW 0.0 591.2
12:15 15.0 69.8 1024.6 20.6 SW 29.3 SW 0.0 542.1
12:20 15.1 69.3 1024.5 21.1 SW 27.2 SW 0.0 529.2
12:25 15.1 68.9 1024.5 22.8 SW 30.0 SW 0.0 485.2
12:30 15.1 69.2 1024.5 22.0 SW 31.8 SW 0.0 527.3
12:35 15.4 67.9 1024.5 20.3 SW 26.1 SW 0.0 531.8
12:40 15.3 68.5 1024.4 20.6 SW 30.7 SW 0.0 505.4
12:45 15.3 68.4 1024.2 24.3 SW 32.8 SSW 0.0 515.3
12:50 15.2 68.5 1024.2 23.9 SW 34.9 SW 0.0 401.2
12:55 15.4 68.6 1024.3 20.0 SW 27.9 SW 0.0 496.6
13:00 15.7 66.5 1024.3 20.9 SW 31.4 SW 0.0 519.3
13:05 15.8 65.5 1024.3 23.0 SW 33.5 SW 0.0 522.1
13:10 15.5 66.1 1024.3 23.7 SW 32.8 SW 0.0 491.8
13:15 15.6 66.1 1024.3 19.0 SW 27.9 SW 0.0 481.7
13:20 16.0 65.0 1024.2 20.1 SW 29.7 SW 0.0 495.8
13:25 15.8 65.7 1024.1 22.2 SW 27.9 SW 0.0 485.5
13:30 15.9 65.1 1024.1 18.3 SW 25.4 SW 0.0 477.5
13:35 16.0 63.9 1024.2 21.2 SW 30.4 SW 0.0 471.1
13:40 15.9 64.0 1024.2 18.8 SW 29.7 SW 0.0 441.2
13:45 15.9 64.4 1024.2 17.6 SW 24.7 SSW 0.0 420.7
13:50 16.2 63.9 1024.2 15.1 SSW 28.9 SSW 0.0 366.0
13:55 16.1 64.9 1024.2 16.4 SW 25.1 SW 0.0 395.4
14:00 16.5 63.7 1024.3 12.4 WSW 20.1 SSW 0.0 384.2
14:05 16.4 65.1 1024.4 9.9 WSW 17.3 WSW 0.0 372.5
14:10 16.1 65.3 1024.3 16.3 SW 22.2 SW 0.0 349.1
14:15 15.7 66.6 1024.3 14.8 SSW 22.6 SW 0.0 362.7
14:20 16.0 66.1 1024.3 14.1 SW 20.5 SSW 0.0 348.6
14:25 16.4 64.9 1024.2 16.9 SW 28.2 SSW 0.0 334.6
14:30 16.3 64.7 1024.3 14.2 SW 24.0 SW 0.0 338.3
14:35 16.4 64.3 1024.3 13.5 SW 23.3 SW 0.0 289.1
14:40 16.4 64.0 1024.3 14.8 SW 25.4 WSW 0.0 312.4
14:45 16.2 64.8 1024.3 15.5 SW 27.2 SW 0.0 297.4
14:50 16.6 63.9 1024.3 12.9 SW 22.2 WSW 0.0 289.7
14:55 16.2 64.5 1024.3 17.2 SW 23.0 SW 0.0 276.4
15:00 15.9 64.9 1024.4 15.3 SSW 24.7 SW 0.0 261.7
15:05 15.9 65.8 1024.4 14.4 SW 23.3 SW 0.0 242.4
15:10 16.0 65.2 1024.5 13.4 SW 22.2 SSW 0.0 230.4
15:15 15.8 65.7 1024.4 17.0 SW 24.7 SW 0.0 218.5
15:20 15.6 66.9 1024.4 16.9 SW 22.2 SW 0.0 207.6
15:25 15.7 67.0 1024.4 16.4 SW 23.3 SSW 0.0 193.3
15:30 15.7 67.3 1024.5 14.0 SW 20.8 SW 0.0 179.0
15:35 15.8 67.0 1024.5 13.7 SW 21.2 SW 0.0 164.8
15:40 15.8 67.3 1024.6 12.1 SW 17.0 SW 0.0 154.7
15:45 15.7 67.6 1024.6 13.1 SW 18.0 SW 0.0 145.3
15:50 15.4 68.4 1024.5 13.9 SW 18.7 SW 0.0 136.8
15:55 15.4 68.8 1024.5 13.6 SW 19.8 SW 0.0 126.7
16:00 15.3 68.9 1024.6 13.0 SW 18.4 SSW 0.0 111.0
16:05 15.2 69.7 1024.5 13.6 SW 17.7 SW 0.0 97.5
16:10 15.1 70.3 1024.6 13.0 SW 18.4 SSW 0.0 73.3
16:15 14.9 71.3 1024.6 12.2 SW 16.2 SSW 0.0 59.1
16:20 14.7 72.2 1024.6 10.8 SW 14.5 SW 0.0 46.3
16:25 14.5 73.0 1024.6 7.8 SW 12.4 SW 0.0 42.9
16:30 14.4 73.3 1024.7 7.1 WSW 10.6 SW 0.0 41.6
16:35 14.4 73.4 1024.7 6.3 WSW 8.8 WSW 0.0 30.9
16:40 14.2 73.9 1024.7 5.5 WSW 8.1 WSW 0.0 18.0
16:45 14.1 74.6 1024.7 4.2 WSW 5.7 W 0.0 12.2
16:50 13.9 75.4 1024.7 3.8 WSW 5.3 WSW 0.0 7.5
16:55 13.7 76.1 1024.8 2.8 W 4.6 WSW 0.0 5.4
17:00 13.6 76.6 1024.8 2.1 W 6.7 WNW 0.0 5.8
17:05 13.6 76.6 1024.8 1.2 SW 4.2 WNW 0.0 3.1
17:10 13.5 77.0 1024.8 2.6 SW 5.3 WNW 0.0 0.8
17:15 13.4 77.3 1024.8 1.6 SW 4.6 SW 0.0 0.2
17:20 13.3 77.6 1024.9 2.4 W 5.0 W 0.0 0.1
17:25 13.4 77.0 1024.9 0.4 WSW 2.5 WNW 0.0 0.1
17:30 13.2 77.9 1024.9 0.6 SE 2.5 SE 0.0 0.1
17:35 13.3 78.1 1025.0 2.6 SSW 3.9 S 0.0 0.1
17:40 13.4 77.5 1025.0 0.2 SSW 1.8 SW 0.0 0.1
17:45 13.3 78.0 1025.0 0.2 NW 1.4 WNW 0.0 0.1
17:50 13.5 77.3 1025.0 0.9 WNW 2.8 WNW 0.0 0.1
17:55 13.4 77.4 1025.0 2.4 SW 3.5 SW 0.0 0.1
18:00 13.3 78.1 1025.1 3.4 SSW 4.6 SSW 0.0 0.1
18:05 13.2 78.7 1025.1 3.5 S 6.0 SSE 0.0 0.1
18:10 13.0 81.1 1025.1 5.0 S 7.4 SSE 0.0 0.1
18:15 12.9 85.0 1025.1 4.5 S 6.0 S 0.0 0.1
18:20 12.9 85.5 1025.2 3.9 S 5.0 SSW 0.0 0.1
18:25 12.9 85.0 1025.2 3.3 SW 5.3 SW 0.0 0.1
18:30 13.0 84.2 1025.3 2.9 SW 3.9 SSW 0.0 0.1
18:35 13.0 82.0 1025.3 3.5 SW 4.6 SW 0.0 0.1
18:40 13.1 81.7 1025.3 3.9 SW 4.6 SW 0.0 0.1
18:45 13.0 85.9 1025.3 4.4 S 5.3 S 0.0 0.1
18:50 12.8 87.6 1025.3 3.9 SSW 5.3 S 0.0 0.1
18:55 12.8 88.8 1025.3 3.6 SSW 5.0 S 0.0 0.1
19:00 12.7 87.2 1025.3 3.5 WSW 5.3 WSW 0.0 0.1
19:05 12.8 83.7 1025.2 3.1 WSW 5.3 W 0.0 0.1
19:10 12.8 84.0 1025.2 2.7 SW 3.5 SW 0.0 0.1
19:15 12.8 82.2 1025.2 2.7 W 5.0 WSW 0.0 0.1
19:20 12.9 81.4 1025.2 3.1 SW 3.9 SW 0.0 0.1
19:25 12.9 81.4 1025.2 3.3 WSW 4.6 WSW 0.0 0.1
19:30 12.7 82.2 1025.2 3.9 SW 4.6 SW 0.0 0.1
19:35 12.6 82.9 1025.2 5.3 SW 6.0 SW 0.0 0.1
19:40 12.5 83.8 1025.1 6.3 SW 7.8 SW 0.0 0.1
19:45 12.4 84.7 1025.1 6.9 SW 8.1 SW 0.0 0.1
19:50 12.3 85.8 1025.1 6.4 SW 7.4 SW 0.0 0.1
19:55 12.2 86.6 1025.2 6.0 SSW 7.1 SSW 0.0 0.1
20:00 12.1 86.5 1025.2 6.4 SW 8.5 SW 0.0 0.1
20:05 12.0 85.7 1025.2 6.4 SW 8.5 SW 0.0 0.1
20:10 12.1 85.1 1025.1 7.5 WSW 9.2 WSW 0.0 0.1
20:15 12.3 84.0 1025.1 6.5 SW 8.5 WSW 0.0 0.1
20:20 12.3 84.3 1025.2 5.7 SW 8.1 SW 0.0 0.1
20:25 12.2 85.2 1025.2 5.7 SSW 8.5 SW 0.0 0.1
20:30 12.1 85.9 1025.2 6.7 SW 8.5 SSW 0.0 0.1
20:35 12.0 86.4 1025.2 7.4 SSW 8.8 SSW 0.0 0.1
20:40 11.7 86.9 1025.2 7.9 SW 9.9 SW 0.0 0.1
20:45 11.5 87.8 1025.2 8.7 SW 11.3 WSW 0.0 0.1
20:50 11.4 90.1 1025.2 10.3 SW 14.5 SW 0.0 0.1
20:55 11.5 90.1 1025.2 10.6 SW 14.1 SW 0.0 0.1
21:00 11.5 89.9 1025.2 9.6 SSW 11.3 SSW 0.0 0.1
21:05 11.5 89.7 1025.2 10.1 SSW 12.4 SW 0.0 0.1
21:10 11.3 90.1 1025.2 11.7 SW 13.4 SSW 0.0 0.1
21:15 11.3 90.2 1025.3 12.4 SW 15.5 SSW 0.0 0.1
21:20 11.6 88.3 1025.3 12.6 SW 15.5 SW 0.0 0.1
21:25 11.5 87.9 1025.2 13.7 SW 18.0 SW 0.0 0.1
21:30 11.4 87.6 1025.2 14.0 SW 17.7 SW 0.0 0.1
21:35 11.5 87.4 1025.1 14.8 SW 18.7 SW 0.0 0.1
21:40 11.6 86.4 1025.1 14.9 SW 18.7 SW 0.0 0.1
21:45 11.6 86.3 1025.1 11.7 SW 15.5 SW 0.0 0.1
21:50 11.5 86.3 1025.2 10.7 SW 14.5 SW 0.0 0.1
21:55 11.8 85.0 1025.2 9.9 SW 13.4 WSW 0.0 0.1
22:00 11.8 84.9 1025.2 9.3 SW 11.7 WSW 0.0 0.1
22:05 12.0 83.9 1025.2 9.7 WSW 11.3 WSW 0.0 0.1
22:10 12.1 82.9 1025.3 9.9 WSW 13.1 WSW 0.0 0.1
22:15 12.0 82.8 1025.3 8.7 SW 11.7 WSW 0.0 0.1
22:20 11.6 84.3 1025.3 7.4 SW 9.5 SW 0.0 0.1
22:25 11.5 85.2 1025.3 8.0 SW 10.6 SW 0.0 0.1
22:30 11.5 85.2 1025.3 8.9 SW 12.4 WSW 0.0 0.1
22:35 11.5 85.7 1025.3 8.8 SW 13.1 SW 0.0 0.1
22:40 11.6 84.9 1025.3 9.0 SW 15.5 WSW 0.0 0.1
22:45 11.5 85.5 1025.3 9.2 SW 12.0 SW 0.0 0.1
22:50 11.4 86.0 1025.3 8.1 SW 11.0 SW 0.0 0.1
22:55 11.3 86.4 1025.3 6.3 SW 8.1 SSW 0.0 0.1
23:00 11.1 87.0 1025.4 7.7 SSW 11.7 SW 0.0 0.1
23:05 11.2 87.2 1025.3 8.0 SW 10.3 SW 0.0 0.1
23:10 11.1 87.5 1025.3 9.6 SW 13.8 WSW 0.0 0.1
23:15 11.0 88.1 1025.2 10.9 SW 16.2 SW 0.0 0.1
23:20 11.1 87.9 1025.2 11.3 SW 14.1 SW 0.0 0.1
23:25 11.0 88.2 1025.2 11.6 SW 13.8 SW 0.0 0.1
23:30 10.9 88.5 1025.2 12.1 SW 14.1 SW 0.0 0.1
23:35 10.9 88.6 1025.1 12.0 SW 14.1 SW 0.0 0.1
23:40 10.8 89.0 1025.1 11.7 SW 13.8 SW 0.0 0.1
Màxima 16.8 92.6 1025.8 24.3 SW 35.3 SSW 0.0 606.3
Mínima 9.4 63.7 1022.7
Total 0.0